Time,TemperatureF,DewpointF,PressureIn,WindDirection,WindDirectionDegrees,WindSpeedMPH,WindSpeedGustMPH,Humidity,HourlyPrecipIn,Conditions,Clouds,dailyrainin,SoftwareType,DateUTC
2013-06-28 13:16:00,89.5,73.8,29.68,North,5,2.0,2.0,60,0.00,,,0.00,Wunderground v.1.15,2013-06-28 18:16:00,
2013-06-28 13:17:00,89.4,73.2,29.68,NNE,19,2.0,3.0,59,0.00,,,0.00,Wunderground v.1.15,2013-06-28 18:17:00,
2013-06-28 13:19:00,89.1,73.9,29.68,NNE,19,2.0,3.0,61,0.00,,,0.00,Wunderground v.1.15,2013-06-28 18:19:00,
2013-06-28 13:20:00,88.9,73.7,29.68,NNE,23,2.0,3.0,61,0.00,,,0.00,Wunderground v.1.15,2013-06-28 18:20:00,
2013-06-28 13:25:00,88.7,73.5,29.68,NW,320,1.0,3.0,61,0.00,,,0.00,Wunderground v.1.15,2013-06-28 18:25:00,
2013-06-28 13:31:00,89.1,75.3,29.68,SW,233,0.0,1.0,64,0.00,,,0.00,Wunderground v.1.15,2013-06-28 18:31:00,
2013-06-28 13:33:00,89.4,76.1,29.68,West,278,0.0,1.0,65,0.00,,,0.00,Wunderground v.1.15,2013-06-28 18:33:00,
2013-06-28 13:39:00,89.4,73.7,29.68,WNW,288,1.0,4.0,60,0.00,,,0.00,Wunderground v.1.15,2013-06-28 18:39:00,
2013-06-28 13:44:00,88.6,72.4,29.68,SSE,150,2.0,4.0,59,0.00,,,0.00,Wunderground v.1.15,2013-06-28 18:44:00,
2013-06-28 13:49:00,88.4,73.7,29.68,SW,222,2.0,2.0,62,0.00,,,0.00,Wunderground v.1.15,2013-06-28 18:49:00,
2013-06-28 13:55:00,88.5,72.8,29.67,SSW,203,1.0,2.0,60,0.00,,,0.00,Wunderground v.1.15,2013-06-28 18:55:00,
2013-06-28 14:01:00,88.3,73.6,29.67,WSW,247,1.0,4.0,62,0.00,,,0.00,Wunderground v.1.15,2013-06-28 19:01:00,
2013-06-28 14:06:00,88.4,75.1,29.67,SW,221,0.0,4.0,65,0.00,,,0.00,Wunderground v.1.15,2013-06-28 19:06:00,
2013-06-28 14:12:00,88.0,73.3,29.67,WSW,245,1.0,4.0,62,0.00,,,0.00,Wunderground v.1.15,2013-06-28 19:12:00,
2013-06-28 14:17:00,87.9,74.2,29.67,NE,38,1.0,4.0,64,0.00,,,0.00,Wunderground v.1.15,2013-06-28 19:17:00,
2013-06-28 14:23:00,86.8,71.7,29.67,ENE,73,1.0,4.0,61,0.00,,,0.00,Wunderground v.1.15,2013-06-28 19:23:00,
2013-06-28 14:28:00,86.7,71.2,29.66,ENE,60,2.0,4.0,60,0.00,,,0.00,Wunderground v.1.15,2013-06-28 19:28:00,
2013-06-28 14:34:00,86.7,71.6,29.66,SE,141,2.0,4.0,61,0.00,,,0.00,Wunderground v.1.15,2013-06-28 19:34:00,
2013-06-28 14:40:00,87.0,71.9,29.66,NW,325,2.0,2.0,61,0.00,,,0.00,Wunderground v.1.15,2013-06-28 19:40:00,
2013-06-28 14:45:00,87.2,71.6,29.67,North,10,1.0,4.0,60,0.00,,,0.00,Wunderground v.1.15,2013-06-28 19:45:00,
2013-06-28 14:51:00,87.0,71.4,29.67,ENE,62,1.0,2.0,60,0.00,,,0.00,Wunderground v.1.15,2013-06-28 19:51:00,
2013-06-28 14:57:00,86.3,71.7,29.66,North,3,1.0,4.0,62,0.00,,,0.00,Wunderground v.1.15,2013-06-28 19:57:00,
2013-06-28 15:02:00,85.8,71.3,29.66,NNW,345,1.0,4.0,62,0.00,,,0.00,Wunderground v.1.15,2013-06-28 20:02:00,
2013-06-28 15:08:00,85.5,71.9,29.66,North,359,1.0,4.0,64,0.00,,,0.00,Wunderground v.1.15,2013-06-28 20:08:00,
2013-06-28 15:13:00,85.4,71.4,29.65,WNW,294,1.0,4.0,63,0.00,,,0.00,Wunderground v.1.15,2013-06-28 20:13:00,
2013-06-28 15:19:00,85.6,71.6,29.65,NNE,21,1.0,4.0,63,0.00,,,0.00,Wunderground v.1.15,2013-06-28 20:19:00,
2013-06-28 15:25:00,85.8,71.3,29.65,NE,44,1.0,4.0,62,0.00,,,0.00,Wunderground v.1.15,2013-06-28 20:25:00,
2013-06-28 15:30:00,85.8,72.7,29.65,NNE,14,1.0,1.0,65,0.00,,,0.00,Wunderground v.1.15,2013-06-28 20:30:00,
2013-06-28 15:36:00,85.9,71.4,29.64,SSE,162,1.0,4.0,62,0.00,,,0.00,Wunderground v.1.15,2013-06-28 20:36:00,
2013-06-28 15:41:00,86.0,71.5,29.65,NW,316,1.0,4.0,62,0.00,,,0.00,Wunderground v.1.15,2013-06-28 20:41:00,
2013-06-28 15:47:00,86.0,71.9,29.65,NW,310,1.0,4.0,63,0.00,,,0.00,Wunderground v.1.15,2013-06-28 20:47:00,
2013-06-28 15:53:00,86.3,73.6,29.65,SE,126,1.0,4.0,66,0.00,,,0.00,Wunderground v.1.15,2013-06-28 20:53:00,
2013-06-28 15:58:00,86.3,72.7,29.65,WNW,303,1.0,4.0,64,0.00,,,0.00,Wunderground v.1.15,2013-06-28 20:58:00,
2013-06-28 16:04:00,85.9,71.4,29.64,NNW,345,1.0,4.0,62,0.00,,,0.00,Wunderground v.1.15,2013-06-28 21:04:00,
2013-06-28 16:09:00,85.3,72.6,29.64,NNW,337,2.0,5.0,66,0.00,,,0.00,Wunderground v.1.15,2013-06-28 21:09:00,
2013-06-28 16:15:00,84.5,71.0,29.64,North,3,2.0,4.0,64,0.00,,,0.00,Wunderground v.1.15,2013-06-28 21:15:00,
2013-06-28 16:21:00,84.1,71.5,29.64,NE,43,1.0,4.0,66,0.00,,,0.00,Wunderground v.1.15,2013-06-28 21:21:00,
2013-06-28 16:26:00,83.6,71.5,29.64,North,353,1.0,4.0,67,0.00,,,0.00,Wunderground v.1.15,2013-06-28 21:26:00,
2013-06-28 16:32:00,83.4,71.7,29.64,East,92,1.0,4.0,68,0.00,,,0.00,Wunderground v.1.15,2013-06-28 21:32:00,
2013-06-28 16:37:00,83.3,71.6,29.65,NNE,29,1.0,4.0,68,0.00,,,0.00,Wunderground v.1.15,2013-06-28 21:37:00,
2013-06-28 16:43:00,83.3,72.9,29.65,NNE,26,1.0,4.0,71,0.00,,,0.00,Wunderground v.1.15,2013-06-28 21:43:00,
2013-06-28 16:48:00,83.0,73.0,29.65,NE,43,1.0,4.0,72,0.00,,,0.00,Wunderground v.1.15,2013-06-28 21:48:00,
2013-06-28 16:54:00,83.0,71.8,29.64,ENE,75,1.0,4.0,69,0.00,,,0.00,Wunderground v.1.15,2013-06-28 21:54:00,
2013-06-28 17:00:00,83.4,72.2,29.64,North,10,1.0,4.0,69,0.00,,,0.00,Wunderground v.1.15,2013-06-28 22:00:00,
2013-06-28 17:05:00,83.2,72.0,29.64,NNE,15,1.0,4.0,69,0.00,,,0.00,Wunderground v.1.15,2013-06-28 22:05:00,
2013-06-28 17:11:00,82.6,72.2,29.64,NE,47,1.0,4.0,71,0.00,,,0.00,Wunderground v.1.15,2013-06-28 22:11:00,
2013-06-28 17:16:00,82.2,71.9,29.64,NE,40,1.0,4.0,71,0.00,,,0.00,Wunderground v.1.15,2013-06-28 22:16:00,
2013-06-28 17:22:00,81.6,72.1,29.66,ESE,110,1.0,4.0,73,0.00,,,0.00,Wunderground v.1.15,2013-06-28 22:22:00,
2013-06-28 17:28:00,77.4,70.4,29.67,SSE,150,4.0,6.0,79,2.32,,,0.19,Wunderground v.1.15,2013-06-28 22:28:00,
2013-06-28 17:33:00,74.2,70.4,29.67,SW,235,3.0,4.0,88,0.69,,,0.27,Wunderground v.1.15,2013-06-28 22:33:00,
2013-06-28 17:39:00,72.8,70.0,29.67,West,263,1.0,4.0,91,0.11,,,0.29,Wunderground v.1.15,2013-06-28 22:39:00,
2013-06-28 17:45:00,72.4,70.3,29.67,West,263,0.0,4.0,93,0.05,,,0.29,Wunderground v.1.15,2013-06-28 22:45:00,
2013-06-28 17:50:00,72.4,70.6,29.66,North,352,0.0,4.0,94,0.04,,,0.29,Wunderground v.1.15,2013-06-28 22:50:00,
2013-06-28 17:56:00,72.4,70.6,29.66,NNW,332,0.0,4.0,94,0.00,,,0.29,Wunderground v.1.15,2013-06-28 22:56:00,
2013-06-28 18:02:00,72.4,70.6,29.66,NNW,332,0.0,4.0,94,0.00,,,0.29,Wunderground v.1.15,2013-06-28 23:02:00,
2013-06-28 18:08:00,72.5,70.7,29.66,NNW,334,0.0,4.0,94,0.00,,,0.29,Wunderground v.1.15,2013-06-28 23:08:00,
2013-06-28 18:13:00,72.5,71.0,29.66,NE,52,0.0,4.0,95,0.00,,,0.29,Wunderground v.1.15,2013-06-28 23:13:00,
2013-06-28 18:19:00,72.6,71.1,29.66,NNE,22,0.0,4.0,95,0.00,,,0.29,Wunderground v.1.15,2013-06-28 23:19:00,
2013-06-28 18:24:00,72.7,71.2,29.66,NW,306,0.0,4.0,95,0.00,,,0.29,Wunderground v.1.15,2013-06-28 23:24:00,
2013-06-28 18:30:00,72.6,70.8,29.66,North,2,1.0,1.0,94,0.00,,,0.29,Wunderground v.1.15,2013-06-28 23:30:00,
2013-06-28 18:36:00,72.7,70.9,29.66,NNE,15,0.0,4.0,94,0.00,,,0.29,Wunderground v.1.15,2013-06-28 23:36:00,
2013-06-28 18:41:00,72.5,70.7,29.67,NE,51,0.0,4.0,94,0.00,,,0.29,Wunderground v.1.15,2013-06-28 23:41:00,
2013-06-28 18:47:00,72.3,70.5,29.67,NE,47,0.0,4.0,94,0.00,,,0.29,Wunderground v.1.15,2013-06-28 23:47:00,
2013-06-28 18:52:00,72.2,70.4,29.67,North,3,0.0,4.0,94,0.00,,,0.29,Wunderground v.1.15,2013-06-28 23:52:00,
2013-06-28 18:58:00,72.1,70.6,29.67,NNE,27,0.0,4.0,95,0.00,,,0.29,Wunderground v.1.15,2013-06-28 23:58:00,
2013-06-28 19:03:00,72.1,70.6,29.67,NE,41,0.0,4.0,95,0.00,,,0.29,Wunderground v.1.15,2013-06-29 00:03:00,
2013-06-28 19:09:00,72.1,70.6,29.67,ENE,58,1.0,4.0,95,0.00,,,0.29,Wunderground v.1.15,2013-06-29 00:09:00,
2013-06-28 19:15:00,72.1,70.6,29.67,ENE,60,1.0,4.0,95,0.00,,,0.29,Wunderground v.1.15,2013-06-29 00:15:00,
2013-06-28 19:20:00,71.9,70.4,29.67,ENE,60,0.0,4.0,95,0.00,,,0.29,Wunderground v.1.15,2013-06-29 00:20:00,
2013-06-28 19:26:00,71.7,70.2,29.67,ENE,62,1.0,4.0,95,0.00,,,0.29,Wunderground v.1.15,2013-06-29 00:26:00,
2013-06-28 19:31:00,71.5,70.0,29.67,ENE,64,1.0,4.0,95,0.00,,,0.29,Wunderground v.1.15,2013-06-29 00:31:00,
2013-06-28 19:37:00,71.4,69.9,29.67,NE,39,1.0,4.0,95,0.00,,,0.29,Wunderground v.1.15,2013-06-29 00:37:00,
2013-06-28 19:43:00,71.1,69.6,29.67,NE,51,0.0,4.0,95,0.00,,,0.29,Wunderground v.1.15,2013-06-29 00:43:00,
2013-06-28 19:48:00,70.9,69.4,29.67,NNE,23,0.0,4.0,95,0.00,,,0.29,Wunderground v.1.15,2013-06-29 00:48:00,
2013-06-28 19:54:00,70.5,69.0,29.67,ENE,63,1.0,4.0,95,0.00,,,0.29,Wunderground v.1.15,2013-06-29 00:54:00,
2013-06-28 20:00:00,70.3,68.8,29.68,ENE,65,1.0,1.0,95,0.00,,,0.29,Wunderground v.1.15,2013-06-29 01:00:00,
2013-06-28 20:05:00,70.3,68.8,29.68,NE,50,1.0,4.0,95,0.00,,,0.29,Wunderground v.1.15,2013-06-29 01:05:00,
2013-06-28 20:11:00,70.2,68.7,29.68,NE,40,0.0,4.0,95,0.00,,,0.29,Wunderground v.1.15,2013-06-29 01:11:00,
2013-06-28 20:16:00,70.1,68.6,29.68,NE,40,0.0,4.0,95,0.00,,,0.29,Wunderground v.1.15,2013-06-29 01:16:00,
2013-06-28 20:22:00,69.9,68.4,29.69,NE,40,0.0,4.0,95,0.00,,,0.29,Wunderground v.1.15,2013-06-29 01:22:00,
2013-06-28 20:27:00,69.7,68.5,29.69,NE,40,0.0,4.0,96,0.00,,,0.29,Wunderground v.1.15,2013-06-29 01:27:00,
2013-06-28 20:33:00,69.6,68.4,29.69,NNE,15,0.0,4.0,96,0.00,,,0.29,Wunderground v.1.15,2013-06-29 01:33:00,
2013-06-28 20:38:00,69.5,68.3,29.69,NNW,330,0.0,4.0,96,0.00,,,0.29,Wunderground v.1.15,2013-06-29 01:38:00,
2013-06-28 20:44:00,69.3,68.1,29.69,North,351,0.0,4.0,96,0.00,,,0.29,Wunderground v.1.15,2013-06-29 01:44:00,
2013-06-28 20:50:00,69.2,68.0,29.69,North,351,0.0,4.0,96,0.00,,,0.29,Wunderground v.1.15,2013-06-29 01:50:00,
2013-06-28 20:55:00,69.2,68.0,29.69,North,353,0.0,4.0,96,0.00,,,0.29,Wunderground v.1.15,2013-06-29 01:55:00,
2013-06-28 21:01:00,69.1,67.9,29.69,North,354,0.0,4.0,96,0.00,,,0.29,Wunderground v.1.15,2013-06-29 02:01:00,
2013-06-28 21:07:00,69.1,67.9,29.69,NNE,12,0.0,4.0,96,0.00,,,0.29,Wunderground v.1.15,2013-06-29 02:07:00,
2013-06-28 21:12:00,69.1,67.9,29.69,NNE,12,0.0,4.0,96,0.00,,,0.29,Wunderground v.1.15,2013-06-29 02:12:00,
2013-06-28 21:18:00,69.4,68.2,29.69,NNE,12,0.0,4.0,96,0.00,,,0.29,Wunderground v.1.15,2013-06-29 02:18:00,
2013-06-28 21:23:00,69.4,68.2,29.69,NNE,13,0.0,4.0,96,0.00,,,0.29,Wunderground v.1.15,2013-06-29 02:23:00,
2013-06-28 21:29:00,69.4,68.2,29.68,ENE,63,0.0,4.0,96,0.00,,,0.29,Wunderground v.1.15,2013-06-29 02:29:00,
2013-06-28 21:34:00,69.3,68.1,29.68,NNE,15,0.0,4.0,96,0.00,,,0.29,Wunderground v.1.15,2013-06-29 02:34:00,
2013-06-28 21:40:00,69.3,68.4,29.68,NNE,15,0.0,4.0,97,0.00,,,0.29,Wunderground v.1.15,2013-06-29 02:40:00,
2013-06-28 21:45:00,69.3,68.4,29.69,NNE,19,0.0,4.0,97,0.00,,,0.29,Wunderground v.1.15,2013-06-29 02:45:00,
2013-06-28 21:51:00,69.2,68.3,29.69,NNE,23,0.0,4.0,97,0.00,,,0.29,Wunderground v.1.15,2013-06-29 02:51:00,
2013-06-28 21:57:00,69.2,68.3,29.69,ENE,62,0.0,4.0,97,0.00,,,0.29,Wunderground v.1.15,2013-06-29 02:57:00,
2013-06-28 22:02:00,69.1,68.2,29.69,ENE,57,1.0,4.0,97,0.00,,,0.29,Wunderground v.1.15,2013-06-29 03:02:00,
2013-06-28 22:08:00,69.2,68.3,29.69,North,9,1.0,4.0,97,0.00,,,0.29,Wunderground v.1.15,2013-06-29 03:08:00,
2013-06-28 22:13:00,69.3,68.4,29.70,WNW,297,0.0,4.0,97,0.00,,,0.29,Wunderground v.1.15,2013-06-29 03:13:00,
2013-06-28 22:19:00,69.3,68.4,29.70,North,10,0.0,4.0,97,0.00,,,0.29,Wunderground v.1.15,2013-06-29 03:19:00,
2013-06-28 22:24:00,69.5,68.6,29.70,NNE,15,0.0,4.0,97,0.00,,,0.29,Wunderground v.1.15,2013-06-29 03:24:00,
2013-06-28 22:30:00,69.5,68.6,29.70,NE,36,0.0,4.0,97,0.00,,,0.30,Wunderground v.1.15,2013-06-29 03:30:00,
2013-06-28 22:35:00,69.6,68.7,29.70,NE,37,0.0,4.0,97,0.00,,,0.30,Wunderground v.1.15,2013-06-29 03:35:00,
2013-06-28 22:41:00,69.7,68.8,29.71,ENE,69,0.0,4.0,97,0.07,,,0.31,Wunderground v.1.15,2013-06-29 03:41:00,
2013-06-28 22:47:00,69.7,68.8,29.71,SW,231,0.0,4.0,97,0.05,,,0.31,Wunderground v.1.15,2013-06-29 03:47:00,
2013-06-28 22:52:00,69.7,68.8,29.71,WSW,252,1.0,4.0,97,0.05,,,0.32,Wunderground v.1.15,2013-06-29 03:52:00,
2013-06-28 22:58:00,69.7,68.8,29.71,WSW,252,0.0,4.0,97,0.07,,,0.33,Wunderground v.1.15,2013-06-29 03:58:00,
2013-06-28 23:01:00,69.7,68.8,29.71,WSW,251,0.0,4.0,97,0.07,,,0.33,Wunderground v.1.15,2013-06-29 04:01:00,
2013-06-28 23:02:00,69.7,68.8,29.71,WSW,250,0.0,4.0,97,0.07,,,0.33,Wunderground v.1.15,2013-06-29 04:02:00,
2013-06-28 23:04:00,69.6,68.7,29.71,WNW,300,0.0,4.0,97,0.11,,,0.34,Wunderground v.1.15,2013-06-29 04:04:00,
2013-06-28 23:06:00,69.7,68.8,29.71,East,92,0.0,4.0,97,0.50,,,0.36,Wunderground v.1.15,2013-06-29 04:06:00,
2013-06-28 23:07:00,69.7,68.8,29.71,East,90,0.0,4.0,97,1.40,,,0.39,Wunderground v.1.15,2013-06-29 04:07:00,
2013-06-28 23:12:00,69.6,68.7,29.70,NNE,33,1.0,4.0,97,0.28,,,0.44,Wunderground v.1.15,2013-06-29 04:12:00,
2013-06-28 23:18:00,69.6,68.7,29.69,North,10,1.0,4.0,97,0.33,,,0.48,Wunderground v.1.15,2013-06-29 04:18:00,
2013-06-28 23:23:00,69.6,68.7,29.69,NE,41,1.0,4.0,97,0.13,,,0.49,Wunderground v.1.15,2013-06-29 04:23:00,
2013-06-28 23:29:00,69.2,68.3,29.68,North,6,2.0,4.0,97,0.11,,,0.50,Wunderground v.1.15,2013-06-29 04:29:00,
2013-06-28 23:35:00,68.9,68.0,29.68,North,9,1.0,4.0,97,0.08,,,0.50,Wunderground v.1.15,2013-06-29 04:35:00,
2013-06-28 23:40:00,68.3,67.1,29.68,NNE,32,1.0,4.0,96,0.05,,,0.50,Wunderground v.1.15,2013-06-29 04:40:00,
2013-06-28 23:46:00,68.0,66.8,29.67,East,89,1.0,4.0,96,0.00,,,0.50,Wunderground v.1.15,2013-06-29 04:46:00,
2013-06-28 23:52:00,67.8,66.6,29.67,East,83,1.0,4.0,96,0.00,,,0.50,Wunderground v.1.15,2013-06-29 04:52:00,
2013-06-28 23:57:00,67.5,66.3,29.67,ENE,64,1.0,4.0,96,0.00,,,0.50,Wunderground v.1.15,2013-06-29 04:57:00,